createdAt,value
2017-11-09T00:02:12.206Z,33.95
2017-11-09T00:04:45.604Z,42.78
2017-11-09T00:07:13.471Z,37.95
2017-11-09T00:09:41.338Z,42.20
2017-11-09T00:12:09.206Z,31.37
2017-11-09T00:14:37.074Z,33.78
2017-11-09T00:17:04.940Z,33.25
2017-11-09T00:19:32.808Z,36.55
2017-11-09T00:22:00.675Z,37.88
2017-11-09T00:24:28.542Z,33.08
2017-11-09T00:26:56.411Z,37.50
2017-11-09T00:29:24.277Z,44.33
2017-11-09T00:31:52.144Z,36.05
2017-11-09T00:34:20.015Z,39.28
2017-11-09T00:36:47.880Z,35.42
2017-11-09T00:39:15.746Z,38.15
2017-11-09T00:41:43.614Z,39.42
2017-11-09T00:44:11.480Z,35.15
2017-11-09T00:46:39.348Z,38.63
2017-11-09T00:49:07.216Z,34.80
2017-11-09T00:51:35.087Z,36.58
2017-11-09T00:54:02.950Z,35.22
2017-11-09T00:56:30.829Z,33.85
2017-11-09T00:58:58.686Z,31.65
2017-11-09T01:01:26.553Z,38.30
2017-11-09T01:03:54.424Z,39.17
2017-11-09T01:06:22.295Z,40.53
2017-11-09T01:08:50.160Z,35.40
2017-11-09T01:11:18.025Z,30.88
2017-11-09T01:13:45.891Z,26.42
2017-11-09T01:16:13.757Z,34.85
2017-11-09T01:18:41.623Z,34.60
2017-11-09T01:21:09.491Z,29.98
2017-11-09T01:23:37.358Z,31.45
2017-11-09T01:26:05.227Z,25.00
2017-11-09T01:28:33.091Z,30.27
2017-11-09T01:31:00.960Z,27.40
2017-11-09T01:33:28.849Z,26.02
2017-11-09T01:35:56.708Z,27.85
2017-11-09T01:38:24.564Z,24.90
2017-11-09T01:40:52.429Z,23.58
2017-11-09T01:43:20.298Z,22.70
2017-11-09T01:45:48.164Z,21.42
2017-11-09T01:48:16.031Z,24.27
2017-11-09T01:50:43.898Z,22.13
2017-11-09T01:53:11.767Z,22.30
2017-11-09T01:55:39.636Z,20.27
2017-11-09T01:58:07.502Z,21.40
2017-11-09T02:00:35.368Z,23.02
2017-11-09T02:03:03.239Z,23.42
2017-11-09T02:05:31.102Z,20.60
2017-11-09T02:07:58.972Z,20.58
2017-11-09T02:10:26.767Z,22.37
2017-11-09T02:12:55.422Z,21.27
2017-11-09T02:15:23.288Z,29.55
2017-11-09T02:17:51.164Z,18.37
2017-11-09T02:20:19.024Z,22.50
2017-11-09T02:22:46.894Z,19.77
2017-11-09T02:25:14.758Z,18.77
2017-11-09T02:27:42.627Z,19.70
2017-11-09T02:30:10.493Z,21.58
2017-11-09T02:32:38.360Z,21.77
2017-11-09T02:35:06.227Z,16.00
2017-11-09T02:37:34.095Z,26.35
2017-11-09T02:40:01.961Z,20.85
2017-11-09T02:42:29.830Z,20.83
2017-11-09T02:44:57.697Z,16.33
2017-11-09T02:47:25.564Z,20.05
2017-11-09T02:49:53.430Z,18.62
2017-11-09T02:52:21.298Z,20.08
2017-11-09T02:54:49.165Z,17.90
2017-11-09T02:57:17.135Z,19.98
2017-11-09T02:59:45.009Z,27.50
2017-11-09T03:02:12.870Z,24.50
2017-11-09T03:04:40.737Z,24.67
2017-11-09T03:09:42.720Z,20.92
2017-11-09T03:12:11.405Z,23.08
2017-11-09T03:14:39.375Z,19.42
2017-11-09T03:17:07.242Z,21.45
2017-11-09T03:19:35.110Z,27.08
2017-11-09T03:22:02.977Z,25.45
2017-11-09T03:24:30.844Z,24.73
2017-11-09T03:26:58.710Z,29.15
2017-11-09T03:29:26.578Z,26.77
2017-11-09T03:31:54.446Z,36.58
2017-11-09T03:34:22.314Z,33.70
2017-11-09T03:36:50.189Z,31.35
2017-11-09T03:39:18.047Z,29.12
2017-11-09T03:41:45.915Z,29.80
2017-11-09T03:44:13.782Z,22.00
2017-11-09T03:46:41.649Z,25.00
2017-11-09T03:49:09.519Z,21.08
2017-11-09T03:51:37.387Z,23.62
2017-11-09T03:54:05.251Z,22.60
2017-11-09T03:56:33.118Z,30.37
2017-11-09T03:59:00.987Z,25.10
2017-11-09T04:01:28.853Z,23.02
2017-11-09T04:03:56.721Z,24.52
2017-11-09T04:06:24.589Z,23.00
2017-11-09T04:08:52.456Z,22.50
2017-11-09T04:11:20.329Z,24.73
2017-11-09T04:13:48.200Z,28.55
2017-11-09T04:16:16.062Z,22.87
2017-11-09T04:18:43.928Z,27.48
2017-11-09T04:21:11.793Z,25.42
2017-11-09T04:23:39.664Z,27.92
2017-11-09T04:26:07.530Z,22.80
2017-11-09T04:28:35.397Z,24.80
2017-11-09T04:31:03.205Z,26.85
2017-11-09T04:33:31.027Z,26.65
2017-11-09T04:35:58.895Z,26.92
2017-11-09T04:38:26.695Z,37.97
2017-11-09T04:40:55.345Z,30.15
2017-11-09T04:43:23.213Z,34.85
2017-11-09T04:45:51.079Z,35.75
2017-11-09T04:48:18.947Z,29.67
2017-11-09T04:50:46.816Z,36.88
2017-11-09T04:53:14.682Z,32.55
2017-11-09T04:55:42.549Z,31.30
2017-11-09T04:58:10.416Z,29.83
2017-11-09T05:00:38.283Z,31.23
2017-11-09T05:03:06.165Z,26.40
2017-11-09T05:05:34.735Z,28.85
2017-11-09T05:08:02.603Z,31.15
2017-11-09T05:10:30.473Z,26.75
2017-11-09T05:12:58.341Z,29.52
2017-11-09T05:15:26.140Z,29.67
2017-11-09T05:17:54.788Z,30.35
2017-11-09T05:20:22.656Z,27.52
2017-11-09T05:22:50.523Z,28.33
2017-11-09T05:25:18.391Z,25.20
2017-11-09T05:27:46.257Z,25.75
2017-11-09T05:30:14.125Z,23.50
2017-11-09T05:32:41.993Z,25.12
2017-11-09T05:35:09.859Z,26.20
2017-11-09T05:37:37.931Z,28.40
2017-11-09T05:40:05.800Z,30.25
2017-11-09T05:42:33.666Z,27.98
2017-11-09T05:45:01.537Z,23.38
2017-11-09T05:47:29.401Z,35.10
2017-11-09T05:49:57.269Z,27.52
2017-11-09T05:52:25.136Z,35.22
2017-11-09T05:54:53.010Z,35.50
2017-11-09T05:57:20.869Z,38.72
2017-11-09T05:59:48.738Z,34.60
2017-11-09T06:02:16.604Z,41.45
2017-11-09T06:04:44.472Z,41.17
2017-11-09T06:07:12.344Z,36.45
2017-11-09T06:09:40.206Z,36.55
2017-11-09T06:12:08.075Z,34.65
2017-11-09T06:14:35.950Z,36.90
2017-11-09T06:17:03.808Z,42.13
2017-11-09T06:19:31.675Z,44.33
2017-11-09T06:21:59.542Z,49.35
2017-11-09T06:24:27.410Z,44.78
2017-11-09T06:26:55.278Z,51.28
2017-11-09T06:29:23.281Z,56.72
2017-11-09T06:31:52.549Z,55.97
2017-11-09T06:34:20.428Z,46.13
2017-11-09T06:36:48.282Z,47.00
2017-11-09T06:39:16.149Z,45.00
2017-11-09T06:41:44.018Z,45.75
2017-11-09T06:44:11.885Z,37.42
2017-11-09T06:46:39.756Z,40.78
2017-11-09T06:49:07.619Z,42.17
2017-11-09T06:51:35.486Z,40.28
2017-11-09T06:54:03.353Z,43.53
2017-11-09T06:56:31.226Z,46.63
2017-11-09T06:58:59.092Z,44.85
2017-11-09T07:01:26.958Z,39.05
2017-11-09T07:03:54.824Z,60.17
2017-11-09T07:06:22.691Z,63.67
2017-11-09T07:08:50.558Z,67.90
2017-11-09T07:11:18.425Z,86.35
2017-11-09T07:13:46.292Z,80.57
2017-11-09T07:16:14.158Z,98.57
2017-11-09T07:18:42.028Z,113.72
2017-11-09T07:21:09.896Z,105.60
2017-11-09T07:23:37.764Z,96.50
2017-11-09T07:26:05.631Z,90.45
2017-11-09T07:28:33.511Z,88.57
2017-11-09T07:31:01.369Z,85.50
2017-11-09T07:33:29.236Z,82.57
2017-11-09T07:35:57.105Z,78.75
2017-11-09T07:38:24.968Z,99.10
2017-11-09T07:40:52.837Z,89.95
2017-11-09T07:43:20.703Z,85.15
2017-11-09T07:45:48.570Z,83.70
2017-11-09T07:48:16.437Z,94.00
2017-11-09T07:50:44.306Z,89.87
2017-11-09T07:53:12.170Z,91.15
2017-11-09T07:55:40.038Z,87.18
2017-11-09T07:58:07.905Z,80.25
2017-11-09T08:00:35.772Z,81.15
2017-11-09T08:03:03.644Z,76.90
2017-11-09T08:05:31.506Z,73.22
2017-11-09T08:07:59.373Z,89.65
2017-11-09T08:10:27.241Z,88.35
2017-11-09T08:12:55.108Z,82.50
2017-11-09T08:15:22.976Z,81.80
2017-11-09T08:17:50.843Z,71.12
2017-11-09T08:20:18.711Z,75.68
2017-11-09T08:22:46.577Z,75.40
2017-11-09T08:25:15.603Z,77.18
2017-11-09T08:27:46.241Z,78.65
2017-11-09T08:30:18.488Z,79.85
2017-11-09T08:32:47.297Z,78.00
2017-11-09T08:35:15.961Z,75.60
2017-11-09T08:37:43.817Z,77.12
2017-11-09T08:40:11.684Z,77.68
2017-11-09T08:42:39.552Z,77.62
2017-11-09T08:45:07.419Z,80.87
2017-11-09T08:47:35.286Z,77.03
2017-11-09T08:50:03.154Z,72.75
2017-11-09T08:52:31.021Z,82.93
2017-11-09T08:54:58.889Z,75.32
2017-11-09T08:57:26.756Z,84.65
2017-11-09T08:59:54.624Z,78.53
2017-11-09T09:02:22.489Z,74.03
2017-11-09T09:04:50.357Z,88.07
2017-11-09T09:07:18.223Z,82.43
2017-11-09T09:09:46.092Z,79.55
2017-11-09T09:12:13.959Z,87.45
2017-11-09T09:14:41.826Z,91.28
2017-11-09T09:17:09.693Z,84.50
2017-11-09T09:19:37.562Z,82.00
2017-11-09T09:22:16.180Z,92.75
2017-11-09T09:24:44.048Z,97.72
2017-11-09T09:27:28.710Z,92.18
2017-11-09T09:30:12.346Z,80.97
2017-11-09T09:32:45.676Z,83.05
2017-11-09T09:35:31.838Z,73.35
2017-11-09T09:38:01.704Z,79.93
2017-11-09T09:40:31.435Z,92.45
2017-11-09T09:42:59.330Z,85.93
2017-11-09T09:45:27.199Z,73.10
2017-11-09T09:47:55.068Z,94.82
2017-11-09T09:50:22.933Z,87.32
2017-11-09T09:52:50.800Z,80.05
2017-11-09T09:55:18.667Z,82.00
2017-11-09T09:57:46.535Z,91.65
2017-11-09T10:00:14.505Z,89.10
2017-11-09T10:02:42.373Z,89.68
2017-11-09T10:05:10.239Z,89.55
2017-11-09T10:07:38.107Z,86.15
2017-11-09T10:10:05.973Z,73.93
2017-11-09T10:12:33.841Z,89.53
2017-11-09T10:15:01.710Z,85.45
2017-11-09T10:17:29.578Z,86.05
2017-11-09T10:19:57.443Z,86.43
2017-11-09T10:22:25.311Z,91.18
2017-11-09T10:24:53.183Z,87.30
2017-11-09T10:27:21.045Z,79.72
2017-11-09T10:29:48.912Z,74.87
2017-11-09T10:32:16.780Z,70.50
2017-11-09T10:34:44.646Z,59.47
2017-11-09T10:37:12.514Z,62.42
2017-11-09T10:39:40.381Z,55.40
2017-11-09T10:42:08.249Z,64.65
2017-11-09T10:44:36.117Z,42.55
2017-11-09T10:47:03.983Z,36.33
2017-11-09T10:49:31.856Z,40.05
2017-11-09T10:51:59.720Z,32.15
2017-11-09T10:54:27.588Z,31.75
2017-11-09T10:56:55.453Z,32.83
2017-11-09T10:59:23.325Z,29.60
2017-11-09T11:01:51.191Z,28.80
2017-11-09T11:04:19.060Z,26.67
2017-11-09T11:06:46.925Z,28.02
2017-11-09T11:09:14.791Z,29.00
2017-11-09T11:11:42.656Z,24.30
2017-11-09T11:14:10.454Z,30.42
2017-11-09T11:16:39.115Z,24.83
2017-11-09T11:19:06.975Z,26.83
2017-11-09T11:21:34.845Z,22.60
2017-11-09T11:24:02.711Z,27.25
2017-11-09T11:26:30.577Z,28.87
2017-11-09T11:28:58.444Z,23.52
2017-11-09T11:31:26.247Z,30.70
2017-11-09T11:33:54.896Z,25.25
2017-11-09T11:36:22.765Z,20.83
2017-11-09T11:38:50.629Z,27.90
2017-11-09T11:41:18.499Z,27.42
2017-11-09T11:43:46.366Z,26.60
2017-11-09T11:46:14.232Z,21.98
2017-11-09T11:48:42.099Z,23.98
2017-11-09T11:51:09.968Z,23.02
2017-11-09T11:53:37.834Z,21.87
2017-11-09T11:56:05.702Z,25.62
2017-11-09T11:58:33.570Z,26.87
2017-11-09T12:01:01.439Z,28.58
2017-11-09T12:03:29.312Z,26.77
2017-11-09T12:05:57.172Z,29.35
2017-11-09T12:08:25.039Z,36.65
2017-11-09T12:10:52.906Z,31.20
2017-11-09T12:13:20.774Z,31.17
2017-11-09T12:15:48.643Z,29.95
2017-11-09T12:18:16.508Z,40.55
2017-11-09T12:20:44.375Z,40.65
2017-11-09T12:23:12.242Z,48.60
2017-11-09T12:25:40.109Z,45.35
2017-11-09T12:28:07.978Z,46.53
2017-11-09T12:30:35.780Z,47.47
2017-11-09T12:33:04.362Z,53.17
2017-11-09T12:35:33.012Z,55.33
2017-11-09T12:38:00.884Z,46.47
2017-11-09T12:40:28.747Z,51.72
2017-11-09T12:42:56.614Z,57.33
2017-11-09T12:45:24.481Z,48.10
2017-11-09T12:47:52.350Z,58.85
2017-11-09T12:50:20.217Z,46.30
2017-11-09T12:52:48.084Z,50.53
2017-11-09T12:55:15.960Z,47.25
2017-11-09T12:57:43.818Z,52.00
2017-11-09T13:00:11.686Z,43.50
2017-11-09T13:02:39.553Z,50.60
2017-11-09T13:05:07.421Z,53.17
2017-11-09T13:07:35.287Z,51.55
2017-11-09T13:10:03.153Z,59.35
2017-11-09T13:12:31.022Z,58.87
2017-11-09T13:14:58.890Z,59.83
2017-11-09T13:17:26.760Z,57.95
2017-11-09T13:19:54.623Z,53.67
2017-11-09T13:22:22.491Z,58.17
2017-11-09T13:24:50.356Z,58.33
2017-11-09T13:27:18.226Z,55.88
2017-11-09T13:29:46.093Z,50.92
2017-11-09T13:32:14.063Z,56.20
2017-11-09T13:34:41.931Z,55.65
2017-11-09T13:37:09.798Z,62.25
2017-11-09T13:39:37.669Z,54.97
2017-11-09T13:42:05.532Z,53.20
2017-11-09T13:44:33.400Z,56.15
2017-11-09T13:47:01.278Z,48.05
2017-11-09T13:49:29.134Z,56.25
2017-11-09T13:51:56.995Z,54.97
2017-11-09T13:54:24.868Z,58.25
2017-11-09T13:56:52.837Z,60.75
2017-11-09T13:59:20.706Z,58.70
2017-11-09T14:01:48.573Z,63.53
2017-11-09T14:04:16.445Z,59.38
2017-11-09T14:06:44.308Z,59.55
2017-11-09T14:09:12.180Z,61.22
2017-11-09T14:11:40.042Z,60.35
2017-11-09T14:14:07.911Z,59.42
2017-11-09T14:16:35.782Z,59.88
2017-11-09T14:19:03.650Z,53.78
2017-11-09T14:21:31.515Z,56.75
2017-11-09T14:23:59.390Z,65.75
2017-11-09T14:26:27.246Z,59.92
2017-11-09T14:28:55.114Z,57.17
2017-11-09T14:31:22.985Z,55.50
2017-11-09T14:33:50.848Z,60.08
2017-11-09T14:36:18.716Z,57.28
2017-11-09T14:38:51.400Z,51.85
2017-11-09T14:41:19.266Z,58.45
2017-11-09T14:43:47.130Z,59.60
2017-11-09T14:46:14.998Z,62.67
2017-11-09T14:48:42.874Z,58.33
2017-11-09T14:51:10.732Z,59.95
2017-11-09T14:53:38.599Z,59.33
2017-11-09T14:56:06.467Z,52.05
2017-11-09T14:58:34.334Z,57.10
2017-11-09T15:01:02.202Z,60.38
2017-11-09T15:03:30.069Z,59.25
2017-11-09T15:05:57.936Z,61.95
2017-11-09T15:08:25.802Z,59.28
2017-11-09T15:10:53.670Z,61.05
2017-11-09T15:13:21.539Z,70.43
2017-11-09T15:15:55.242Z,65.00
2017-11-09T15:18:23.110Z,64.85
2017-11-09T15:20:50.996Z,66.80
2017-11-09T15:23:18.946Z,71.20
2017-11-09T15:25:46.814Z,57.55
2017-11-09T15:28:14.681Z,64.53
2017-11-09T15:30:42.548Z,65.72
2017-11-09T15:33:10.418Z,64.05
2017-11-09T15:35:38.283Z,68.95
2017-11-09T15:38:06.150Z,70.32
2017-11-09T15:40:34.018Z,74.50
2017-11-09T15:43:01.884Z,64.90
2017-11-09T15:45:29.753Z,66.65
2017-11-09T15:47:57.628Z,60.90
2017-11-09T15:50:25.487Z,68.22
2017-11-09T15:52:53.355Z,57.78
2017-11-09T15:55:21.223Z,70.55
2017-11-09T15:57:49.018Z,60.03
2017-11-09T16:00:17.673Z,66.40
2017-11-09T16:02:45.541Z,66.97
2017-11-09T16:05:13.409Z,68.87
2017-11-09T16:07:41.275Z,69.35
2017-11-09T16:10:09.143Z,76.80
2017-11-09T16:12:37.008Z,71.07
2017-11-09T16:15:04.877Z,68.20
2017-11-09T16:17:32.744Z,67.60
2017-11-09T16:20:00.611Z,66.10
2017-11-09T16:22:28.478Z,67.03
2017-11-09T16:24:56.346Z,69.45
2017-11-09T16:27:24.215Z,70.12
2017-11-09T16:29:52.081Z,69.80
2017-11-09T16:32:19.956Z,66.03
2017-11-09T16:34:47.816Z,66.78
2017-11-09T16:37:15.683Z,67.25
2017-11-09T16:39:43.551Z,73.95
2017-11-09T16:42:11.417Z,64.15
2017-11-09T16:44:39.285Z,62.78
2017-11-09T16:47:07.151Z,65.00
2017-11-09T16:49:35.021Z,69.45
2017-11-09T16:52:02.887Z,66.70
2017-11-09T16:54:30.754Z,77.05
2017-11-09T16:56:58.621Z,65.07
2017-11-09T16:59:26.490Z,66.80
2017-11-09T17:01:54.360Z,75.40
2017-11-09T17:04:22.224Z,71.93
2017-11-09T17:06:50.092Z,65.03
2017-11-09T17:09:17.958Z,76.12
2017-11-09T17:11:45.830Z,77.60
2017-11-09T17:14:13.693Z,66.95
2017-11-09T17:16:41.561Z,70.30
2017-11-09T17:19:10.253Z,64.28
2017-11-09T17:21:38.116Z,76.60
2017-11-09T17:24:05.981Z,64.15
2017-11-09T17:26:33.854Z,69.75
2017-11-09T17:29:01.721Z,72.93
2017-11-09T17:31:29.586Z,66.30
2017-11-09T17:33:57.451Z,62.28
2017-11-09T17:36:25.320Z,63.78
2017-11-09T17:38:53.185Z,73.03
2017-11-09T17:41:21.053Z,71.45
2017-11-09T17:43:48.920Z,70.68
2017-11-09T17:46:16.789Z,67.20
2017-11-09T17:48:44.655Z,68.00
2017-11-09T17:51:14.467Z,77.62
2017-11-09T17:53:42.336Z,66.80
2017-11-09T17:56:10.203Z,74.05
2017-11-09T17:58:38.070Z,65.90
2017-11-09T18:01:05.937Z,62.25
2017-11-09T18:03:35.647Z,62.35
2017-11-09T18:06:03.516Z,66.03
2017-11-09T18:08:31.390Z,55.00
2017-11-09T18:10:59.249Z,60.10
2017-11-09T18:13:27.117Z,51.60
2017-11-09T18:15:55.086Z,55.78
2017-11-09T18:18:22.958Z,47.42
2017-11-09T18:20:50.821Z,52.22
2017-11-09T18:23:29.236Z,53.25
2017-11-09T18:25:57.103Z,51.88
2017-11-09T18:28:24.904Z,62.80
2017-11-09T18:30:53.554Z,63.95
2017-11-09T18:33:21.425Z,61.50
2017-11-09T18:35:49.288Z,65.05
2017-11-09T18:38:17.156Z,53.63
2017-11-09T18:40:45.026Z,60.35
2017-11-09T18:43:12.910Z,50.40
2017-11-09T18:45:40.759Z,60.67
2017-11-09T18:48:08.626Z,55.20
2017-11-09T18:50:36.493Z,49.45
2017-11-09T18:53:04.360Z,54.00
2017-11-09T18:55:32.227Z,45.72
2017-11-09T18:58:00.095Z,45.10
2017-11-09T19:00:28.787Z,48.58
2017-11-09T19:02:56.649Z,46.30
2017-11-09T19:05:24.517Z,40.00
2017-11-09T19:07:52.383Z,40.95
2017-11-09T19:10:20.250Z,37.30
2017-11-09T19:12:48.118Z,43.50
2017-11-09T19:15:15.985Z,42.67
2017-11-09T19:17:43.859Z,38.13
2017-11-09T19:20:11.719Z,36.78
2017-11-09T19:22:39.588Z,40.42
2017-11-09T19:25:07.454Z,44.00
2017-11-09T19:27:35.321Z,29.60
2017-11-09T19:30:03.189Z,35.75
2017-11-09T19:32:31.056Z,38.90
2017-11-09T19:34:58.922Z,33.90
2017-11-09T19:37:26.791Z,32.63
2017-11-09T19:39:54.680Z,33.63
2017-11-09T19:42:23.345Z,29.27
2017-11-09T19:44:51.212Z,28.58
2017-11-09T19:47:18.930Z,29.58
2017-11-09T19:49:46.634Z,28.90
2017-11-09T19:52:14.514Z,34.95
2017-11-09T19:54:42.256Z,32.22
2017-11-09T19:57:10.142Z,35.03
2017-11-09T19:59:37.855Z,30.17
2017-11-09T20:02:05.668Z,31.12
2017-11-09T20:04:33.536Z,28.67
2017-11-09T20:07:01.404Z,33.30
2017-11-09T20:09:29.271Z,28.85
2017-11-09T20:11:57.138Z,26.60
2017-11-09T20:14:25.006Z,25.10
2017-11-09T20:16:52.771Z,29.37
2017-11-09T20:19:20.637Z,25.40
2017-11-09T20:21:48.499Z,30.33
2017-11-09T20:24:16.372Z,31.62
2017-11-09T20:26:44.242Z,32.22
2017-11-09T20:29:12.113Z,32.30
2017-11-09T20:31:39.974Z,28.17
2017-11-09T20:34:07.840Z,29.30
2017-11-09T20:36:35.709Z,28.65
2017-11-09T20:39:03.501Z,32.78
2017-11-09T20:41:31.340Z,37.67
2017-11-09T20:43:59.208Z,31.90
2017-11-09T20:46:27.080Z,25.95
2017-11-09T20:48:54.805Z,32.85
2017-11-09T20:51:22.547Z,29.30
2017-11-09T20:53:51.191Z,32.97
2017-11-09T20:56:19.060Z,32.90
2017-11-09T20:58:46.927Z,27.95
2017-11-09T21:01:14.809Z,31.00
2017-11-09T21:03:42.663Z,27.67
2017-11-09T21:06:10.527Z,26.30
2017-11-09T21:08:38.391Z,23.77
2017-11-09T21:11:06.260Z,28.42
2017-11-09T21:13:34.332Z,30.52
2017-11-09T21:16:02.199Z,30.30
2017-11-09T21:18:30.066Z,25.42
2017-11-09T21:20:57.933Z,27.90
2017-11-09T21:23:25.809Z,29.08
2017-11-09T21:25:53.668Z,26.05
2017-11-09T21:28:21.536Z,23.30
2017-11-09T21:30:49.409Z,25.42
2017-11-09T21:33:17.271Z,28.35
2017-11-09T21:35:45.140Z,31.60
2017-11-09T21:38:13.025Z,27.70
2017-11-09T21:40:41.692Z,32.33
2017-11-09T21:43:09.663Z,32.45
2017-11-09T21:45:37.528Z,29.45
2017-11-09T21:48:05.397Z,30.75
2017-11-09T21:50:33.262Z,28.90
2017-11-09T21:53:01.131Z,27.65
2017-11-09T21:55:28.997Z,27.67
2017-11-09T21:57:56.865Z,36.47
2017-11-09T22:00:24.733Z,28.73
2017-11-09T22:02:52.599Z,29.23
2017-11-09T22:05:20.467Z,35.60
2017-11-09T22:07:48.335Z,32.50
2017-11-09T22:10:16.306Z,32.65
2017-11-09T22:12:44.174Z,30.73
2017-11-09T22:15:12.039Z,30.88
2017-11-09T22:17:39.907Z,34.22
2017-11-09T22:20:07.773Z,32.88
2017-11-09T22:22:35.641Z,33.10
2017-11-09T22:25:03.503Z,28.95
2017-11-09T22:27:31.376Z,32.75
2017-11-09T22:29:59.247Z,30.77
2017-11-09T22:32:27.113Z,33.92
2017-11-09T22:34:54.980Z,31.05
2017-11-09T22:37:22.846Z,31.58
2017-11-09T22:39:50.713Z,33.00
2017-11-09T22:42:18.579Z,32.75
2017-11-09T22:44:46.447Z,40.25
2017-11-09T22:47:14.316Z,36.83
2017-11-09T22:49:42.182Z,38.40
2017-11-09T22:52:10.055Z,32.90
2017-11-09T22:54:37.919Z,33.47
2017-11-09T22:57:05.787Z,32.70
2017-11-09T22:59:33.551Z,36.88
2017-11-09T23:02:01.438Z,34.70
2017-11-09T23:04:29.285Z,30.30
2017-11-09T23:06:57.155Z,31.87
2017-11-09T23:09:25.019Z,37.10
2017-11-09T23:11:52.887Z,32.88
2017-11-09T23:14:20.753Z,39.35
2017-11-09T23:16:48.619Z,34.72
2017-11-09T23:19:16.479Z,38.28
2017-11-09T23:21:45.174Z,39.65
2017-11-09T23:24:13.042Z,36.28
2017-11-09T23:26:40.908Z,39.78
2017-11-09T23:29:08.776Z,41.22
2017-11-09T23:31:36.644Z,36.30
2017-11-09T23:34:04.510Z,42.72
2017-11-09T23:36:32.377Z,42.95
2017-11-09T23:39:00.245Z,43.65
2017-11-09T23:41:28.117Z,41.30
2017-11-09T23:43:55.980Z,41.03
2017-11-09T23:46:23.841Z,36.70
2017-11-09T23:48:51.715Z,40.85
2017-11-09T23:51:19.581Z,42.45
2017-11-09T23:53:47.450Z,37.30
2017-11-09T23:56:15.316Z,41.35
2017-11-09T23:58:43.184Z,41.28
